sensor_id;sensor_type;location;lat;lon;timestamp;pressure;altitude;pressure_sealevel;temperature;humidity
26781;BME280;14366;49.184;8.054;2023-11-19T00:00:51;99086.56;;;8.84;100.00
26781;BME280;14366;49.184;8.054;2023-11-19T00:11:31;99081.19;;;8.84;100.00
26781;BME280;14366;49.184;8.054;2023-11-19T00:17:07;99073.81;;;8.86;100.00
26781;BME280;14366;49.184;8.054;2023-11-19T00:22:42;99063.91;;;8.87;100.00
26781;BME280;14366;49.184;8.054;2023-11-19T00:28:17;99041.25;;;8.89;100.00
26781;BME280;14366;49.184;8.054;2023-11-19T00:33:36;99049.13;;;8.91;100.00
26781;BME280;14366;49.184;8.054;2023-11-19T00:39:09;99036.53;;;8.91;100.00
26781;BME280;14366;49.184;8.054;2023-11-19T00:44:42;99054.03;;;8.95;100.00
26781;BME280;14366;49.184;8.054;2023-11-19T00:50:04;99040.28;;;8.98;100.00
26781;BME280;14366;49.184;8.054;2023-11-19T00:55:38;99021.28;;;9.00;100.00
26781;BME280;14366;49.184;8.054;2023-11-19T01:00:58;99025.34;;;9.04;100.00
26781;BME280;14366;49.184;8.054;2023-11-19T01:06:25;99040.84;;;9.10;100.00
26781;BME280;14366;49.184;8.054;2023-11-19T01:11:52;99033.81;;;9.17;100.00
26781;BME280;14366;49.184;8.054;2023-11-19T01:17:28;99005.13;;;9.26;100.00
26781;BME280;14366;49.184;8.054;2023-11-19T01:22:49;99028.00;;;9.30;100.00
26781;BME280;14366;49.184;8.054;2023-11-19T01:28:25;99032.72;;;9.36;100.00
26781;BME280;14366;49.184;8.054;2023-11-19T01:33:45;99029.72;;;9.39;100.00
26781;BME280;14366;49.184;8.054;2023-11-19T01:39:22;99028.38;;;9.43;100.00
26781;BME280;14366;49.184;8.054;2023-11-19T01:44:57;98994.22;;;9.43;100.00
26781;BME280;14366;49.184;8.054;2023-11-19T01:50:33;99007.66;;;9.43;100.00
26781;BME280;14366;49.184;8.054;2023-11-19T01:56:11;98990.72;;;9.43;100.00
26781;BME280;14366;49.184;8.054;2023-11-19T02:01:45;98996.75;;;9.45;100.00
26781;BME280;14366;49.184;8.054;2023-11-19T02:07:05;98995.06;;;9.44;100.00
26781;BME280;14366;49.184;8.054;2023-11-19T02:12:27;99018.13;;;9.46;100.00
26781;BME280;14366;49.184;8.054;2023-11-19T02:23:47;98986.69;;;9.47;100.00
26781;BME280;14366;49.184;8.054;2023-11-19T02:29:24;98986.00;;;9.45;100.00
26781;BME280;14366;49.184;8.054;2023-11-19T02:40:03;98966.31;;;9.44;100.00
26781;BME280;14366;49.184;8.054;2023-11-19T02:45:40;98971.69;;;9.44;100.00
26781;BME280;14366;49.184;8.054;2023-11-19T02:56:19;98965.66;;;9.50;100.00
26781;BME280;14366;49.184;8.054;2023-11-19T03:07:21;98944.50;;;9.56;100.00
26781;BME280;14366;49.184;8.054;2023-11-19T03:18:01;98941.81;;;9.56;100.00
26781;BME280;14366;49.184;8.054;2023-11-19T03:23:22;98934.25;;;9.59;100.00
26781;BME280;14366;49.184;8.054;2023-11-19T03:28:59;98932.38;;;9.60;100.00
26781;BME280;14366;49.184;8.054;2023-11-19T03:34:33;98941.13;;;9.62;100.00
26781;BME280;14366;49.184;8.054;2023-11-19T03:39:54;98950.53;;;9.66;100.00
26781;BME280;14366;49.184;8.054;2023-11-19T03:45:27;98938.28;;;9.71;100.00
26781;BME280;14366;49.184;8.054;2023-11-19T03:50:47;98929.34;;;9.79;100.00
26781;BME280;14366;49.184;8.054;2023-11-19T03:56:05;98933.41;;;9.99;100.00
26781;BME280;14366;49.184;8.054;2023-11-19T04:01:41;98912.84;;;10.22;100.00
26781;BME280;14366;49.184;8.054;2023-11-19T04:07:01;98918.69;;;10.50;100.00
26781;BME280;14366;49.184;8.054;2023-11-19T04:17:22;98902.44;;;10.74;100.00
26781;BME280;14366;49.184;8.054;2023-11-19T04:28:02;98917.16;;;10.95;100.00
26781;BME280;14366;49.184;8.054;2023-11-19T04:38:40;98917.44;;;11.08;100.00
26781;BME280;14366;49.184;8.054;2023-11-19T04:44:16;98910.66;;;11.12;100.00
26781;BME280;14366;49.184;8.054;2023-11-19T04:49:52;98904.91;;;11.15;100.00
26781;BME280;14366;49.184;8.054;2023-11-19T04:55:14;98931.19;;;11.21;100.00
26781;BME280;14366;49.184;8.054;2023-11-19T05:00:49;98918.00;;;11.26;100.00
26781;BME280;14366;49.184;8.054;2023-11-19T05:06:09;98913.78;;;11.32;100.00
26781;BME280;14366;49.184;8.054;2023-11-19T05:11:28;98920.50;;;11.36;100.00
26781;BME280;14366;49.184;8.054;2023-11-19T05:17:04;98913.34;;;11.43;100.00
26781;BME280;14366;49.184;8.054;2023-11-19T05:22:40;98907.09;;;11.42;100.00
26781;BME280;14366;49.184;8.054;2023-11-19T05:28:02;98899.78;;;11.51;100.00
26781;BME280;14366;49.184;8.054;2023-11-19T05:33:38;98893.16;;;11.61;100.00
26781;BME280;14366;49.184;8.054;2023-11-19T05:39:13;98897.16;;;11.65;100.00
26781;BME280;14366;49.184;8.054;2023-11-19T05:44:35;98893.91;;;11.70;100.00
26781;BME280;14366;49.184;8.054;2023-11-19T05:50:09;98888.47;;;11.78;100.00
26781;BME280;14366;49.184;8.054;2023-11-19T05:55:29;98880.22;;;11.80;100.00
26781;BME280;14366;49.184;8.054;2023-11-19T06:00:51;98874.53;;;11.89;100.00
26781;BME280;14366;49.184;8.054;2023-11-19T06:06:28;98879.13;;;11.89;100.00
26781;BME280;14366;49.184;8.054;2023-11-19T06:12:03;98903.03;;;11.92;100.00
26781;BME280;14366;49.184;8.054;2023-11-19T06:39:40;98878.22;;;12.11;100.00
26781;BME280;14366;49.184;8.054;2023-11-19T06:45:01;98917.25;;;12.08;100.00
26781;BME280;14366;49.184;8.054;2023-11-19T07:01:06;98930.88;;;12.15;100.00
26781;BME280;14366;49.184;8.054;2023-11-19T07:22:21;98935.91;;;12.18;100.00
26781;BME280;14366;49.184;8.054;2023-11-19T07:27:43;98940.91;;;12.21;100.00
26781;BME280;14366;49.184;8.054;2023-11-19T07:33:18;98929.19;;;12.29;100.00
26781;BME280;14366;49.184;8.054;2023-11-19T07:38:39;98935.72;;;12.34;100.00
26781;BME280;14366;49.184;8.054;2023-11-19T07:49:20;98950.19;;;12.41;100.00
26781;BME280;14366;49.184;8.054;2023-11-19T08:00:00;98959.91;;;12.50;100.00
26781;BME280;14366;49.184;8.054;2023-11-19T08:05:22;98946.66;;;12.55;100.00
26781;BME280;14366;49.184;8.054;2023-11-19T08:10:57;98952.56;;;12.59;100.00
26781;BME280;14366;49.184;8.054;2023-11-19T08:16:17;98952.00;;;12.63;100.00
26781;BME280;14366;49.184;8.054;2023-11-19T08:21:38;98936.53;;;12.72;100.00
26781;BME280;14366;49.184;8.054;2023-11-19T08:27:13;98935.19;;;12.83;100.00
26781;BME280;14366;49.184;8.054;2023-11-19T08:37:39;98932.09;;;13.00;100.00
26781;BME280;14366;49.184;8.054;2023-11-19T08:48:14;98951.25;;;13.14;100.00
26781;BME280;14366;49.184;8.054;2023-11-19T08:53:35;98956.53;;;13.22;100.00
26781;BME280;14366;49.184;8.054;2023-11-19T08:59:10;98975.31;;;13.23;100.00
26781;BME280;14366;49.184;8.054;2023-11-19T09:04:30;98981.56;;;13.24;100.00
26781;BME280;14366;49.184;8.054;2023-11-19T09:09:51;98963.34;;;13.32;100.00
26781;BME280;14366;49.184;8.054;2023-11-19T09:20:32;98977.03;;;13.45;100.00
26781;BME280;14366;49.184;8.054;2023-11-19T09:25:53;98984.19;;;13.53;100.00
26781;BME280;14366;49.184;8.054;2023-11-19T09:31:24;98983.19;;;13.54;100.00
26781;BME280;14366;49.184;8.054;2023-11-19T09:36:44;98997.16;;;13.58;99.79
26781;BME280;14366;49.184;8.054;2023-11-19T09:42:21;98993.72;;;13.64;99.50
26781;BME280;14366;49.184;8.054;2023-11-19T09:48:01;99003.25;;;13.60;99.31
26781;BME280;14366;49.184;8.054;2023-11-19T09:53:30;99000.28;;;13.54;99.29
26781;BME280;14366;49.184;8.054;2023-11-19T09:59:04;98991.56;;;13.59;98.73
26781;BME280;14366;49.184;8.054;2023-11-19T10:04:42;98993.06;;;13.62;98.07
26781;BME280;14366;49.184;8.054;2023-11-19T10:10:18;98975.84;;;13.69;97.05
26781;BME280;14366;49.184;8.054;2023-11-19T10:15:59;98978.38;;;13.71;97.28
26781;BME280;14366;49.184;8.054;2023-11-19T10:21:34;98981.16;;;13.77;96.87
26781;BME280;14366;49.184;8.054;2023-11-19T10:27:10;98969.53;;;13.83;93.90
26781;BME280;14366;49.184;8.054;2023-11-19T10:32:48;98960.69;;;13.96;94.99
26781;BME280;14366;49.184;8.054;2023-11-19T10:38:23;98970.63;;;14.10;94.30
26781;BME280;14366;49.184;8.054;2023-11-19T10:43:59;98971.78;;;14.22;94.10
26781;BME280;14366;49.184;8.054;2023-11-19T10:49:35;98984.59;;;14.35;94.16
26781;BME280;14366;49.184;8.054;2023-11-19T10:55:10;98973.59;;;14.36;91.32
26781;BME280;14366;49.184;8.054;2023-11-19T11:00:46;98965.28;;;14.38;90.82
26781;BME280;14366;49.184;8.054;2023-11-19T11:06:21;98963.59;;;14.37;90.43
26781;BME280;14366;49.184;8.054;2023-11-19T11:11:56;98973.09;;;14.54;90.45
26781;BME280;14366;49.184;8.054;2023-11-19T11:17:31;98949.03;;;14.44;89.79
26781;BME280;14366;49.184;8.054;2023-11-19T11:28:54;98954.44;;;14.38;89.22
26781;BME280;14366;49.184;8.054;2023-11-19T11:34:30;98941.91;;;14.37;89.53
26781;BME280;14366;49.184;8.054;2023-11-19T11:40:04;98944.31;;;14.53;87.50
26781;BME280;14366;49.184;8.054;2023-11-19T11:45:38;98934.09;;;14.55;87.76
26781;BME280;14366;49.184;8.054;2023-11-19T11:51:10;98943.34;;;14.61;86.46
26781;BME280;14366;49.184;8.054;2023-11-19T11:56:32;98934.00;;;14.70;85.31
26781;BME280;14366;49.184;8.054;2023-11-19T12:02:09;98925.47;;;14.79;83.66
26781;BME280;14366;49.184;8.054;2023-11-19T12:07:44;98916.00;;;15.03;84.93
26781;BME280;14366;49.184;8.054;2023-11-19T12:13:19;98914.62;;;15.20;82.56
26781;BME280;14366;49.184;8.054;2023-11-19T12:18:51;98911.87;;;15.14;81.42
26781;BME280;14366;49.184;8.054;2023-11-19T12:24:23;98919.41;;;15.18;80.43
26781;BME280;14366;49.184;8.054;2023-11-19T12:29:55;98902.13;;;15.26;79.42
26781;BME280;14366;49.184;8.054;2023-11-19T12:35:18;98904.22;;;15.30;78.71
26781;BME280;14366;49.184;8.054;2023-11-19T12:46:33;98887.00;;;15.04;76.00
26781;BME280;14366;49.184;8.054;2023-11-19T12:51:52;98905.50;;;14.87;77.48
26781;BME280;14366;49.184;8.054;2023-11-19T12:57:40;98892.31;;;14.84;77.75
26781;BME280;14366;49.184;8.054;2023-11-19T13:03:08;98902.06;;;14.65;76.85
26781;BME280;14366;49.184;8.054;2023-11-19T13:08:35;98884.44;;;14.55;77.87
26781;BME280;14366;49.184;8.054;2023-11-19T13:14:02;98876.47;;;14.47;76.98
26781;BME280;14366;49.184;8.054;2023-11-19T13:24:43;98885.22;;;14.49;77.65
26781;BME280;14366;49.184;8.054;2023-11-19T13:30:18;98887.09;;;14.48;75.94
26781;BME280;14366;49.184;8.054;2023-11-19T13:40:59;98883.41;;;14.56;75.88
26781;BME280;14366;49.184;8.054;2023-11-19T13:51:37;98852.75;;;14.62;74.59
26781;BME280;14366;49.184;8.054;2023-11-19T14:02:03;98844.88;;;14.67;75.55
26781;BME280;14366;49.184;8.054;2023-11-19T14:07:40;98841.78;;;14.70;74.70
26781;BME280;14366;49.184;8.054;2023-11-19T14:13:16;98839.06;;;14.70;75.30
26781;BME280;14366;49.184;8.054;2023-11-19T14:18:53;98833.16;;;14.66;74.43
26781;BME280;14366;49.184;8.054;2023-11-19T14:24:29;98841.72;;;14.63;73.17
26781;BME280;14366;49.184;8.054;2023-11-19T14:30:05;98845.69;;;14.61;72.83
26781;BME280;14366;49.184;8.054;2023-11-19T14:35:43;98850.81;;;14.49;73.17
26781;BME280;14366;49.184;8.054;2023-11-19T14:41:20;98853.50;;;14.42;72.92
26781;BME280;14366;49.184;8.054;2023-11-19T14:46:55;98864.53;;;14.41;73.40
26781;BME280;14366;49.184;8.054;2023-11-19T14:52:16;98867.66;;;14.38;74.12
26781;BME280;14366;49.184;8.054;2023-11-19T14:57:52;98868.00;;;14.35;75.07
26781;BME280;14366;49.184;8.054;2023-11-19T15:03:12;98868.81;;;14.29;75.21
26781;BME280;14366;49.184;8.054;2023-11-19T15:08:48;98867.31;;;14.26;74.71
26781;BME280;14366;49.184;8.054;2023-11-19T15:14:20;98864.19;;;14.23;75.48
26781;BME280;14366;49.184;8.054;2023-11-19T15:19:40;98867.28;;;14.20;76.42
26781;BME280;14366;49.184;8.054;2023-11-19T15:25:01;98864.34;;;14.15;76.59
26781;BME280;14366;49.184;8.054;2023-11-19T15:30:34;98860.34;;;14.11;76.20
26781;BME280;14366;49.184;8.054;2023-11-19T15:35:55;98843.66;;;14.07;76.25
26781;BME280;14366;49.184;8.054;2023-11-19T15:46:33;98852.50;;;13.94;77.07
26781;BME280;14366;49.184;8.054;2023-11-19T15:52:07;98861.84;;;13.92;77.17
26781;BME280;14366;49.184;8.054;2023-11-19T15:57:27;98864.53;;;13.85;77.59
26781;BME280;14366;49.184;8.054;2023-11-19T16:03:04;98860.53;;;13.81;77.32
26781;BME280;14366;49.184;8.054;2023-11-19T16:08:40;98858.84;;;13.80;78.03
26781;BME280;14366;49.184;8.054;2023-11-19T16:14:16;98871.31;;;13.75;77.25
26781;BME280;14366;49.184;8.054;2023-11-19T16:19:53;98880.84;;;13.71;78.23
26781;BME280;14366;49.184;8.054;2023-11-19T16:25:29;98890.59;;;13.65;78.14
26781;BME280;14366;49.184;8.054;2023-11-19T16:30:50;98895.56;;;13.62;78.37
26781;BME280;14366;49.184;8.054;2023-11-19T16:36:27;98898.22;;;13.55;78.72
26781;BME280;14366;49.184;8.054;2023-11-19T16:42:03;98892.72;;;13.48;78.79
26781;BME280;14366;49.184;8.054;2023-11-19T16:47:24;98914.09;;;13.43;78.89
26781;BME280;14366;49.184;8.054;2023-11-19T16:53:01;98905.72;;;13.38;78.54
26781;BME280;14366;49.184;8.054;2023-11-19T16:58:35;98912.53;;;13.34;78.21
26781;BME280;14366;49.184;8.054;2023-11-19T17:04:11;98906.91;;;13.29;77.94
26781;BME280;14366;49.184;8.054;2023-11-19T17:09:47;98921.81;;;13.25;77.93
26781;BME280;14366;49.184;8.054;2023-11-19T17:15:23;98926.97;;;13.20;77.51
26781;BME280;14366;49.184;8.054;2023-11-19T17:20:44;98926.50;;;13.17;77.59
26781;BME280;14366;49.184;8.054;2023-11-19T17:26:22;98922.69;;;13.11;77.09
26781;BME280;14366;49.184;8.054;2023-11-19T17:31:57;98927.63;;;13.07;75.94
26781;BME280;14366;49.184;8.054;2023-11-19T17:37:17;98931.06;;;13.01;75.82
26781;BME280;14366;49.184;8.054;2023-11-19T17:42:38;98934.34;;;12.97;76.34
26781;BME280;14366;49.184;8.054;2023-11-19T17:48:14;98935.75;;;12.93;76.12
26781;BME280;14366;49.184;8.054;2023-11-19T17:53:34;98946.75;;;12.91;76.31
26781;BME280;14366;49.184;8.054;2023-11-19T17:59:11;98945.62;;;12.86;77.02
26781;BME280;14366;49.184;8.054;2023-11-19T18:04:46;98963.25;;;12.82;76.55
26781;BME280;14366;49.184;8.054;2023-11-19T18:10:02;98962.78;;;12.78;76.61
26781;BME280;14366;49.184;8.054;2023-11-19T18:20:29;98972.31;;;12.74;76.66
26781;BME280;14366;49.184;8.054;2023-11-19T18:31:05;98967.28;;;12.71;77.02
26781;BME280;14366;49.184;8.054;2023-11-19T18:36:31;98966.63;;;12.69;77.77
26781;BME280;14366;49.184;8.054;2023-11-19T18:41:58;98963.00;;;12.62;77.92
26781;BME280;14366;49.184;8.054;2023-11-19T18:47:18;98957.75;;;12.60;78.34
26781;BME280;14366;49.184;8.054;2023-11-19T18:52:37;98954.22;;;12.60;78.68
26781;BME280;14366;49.184;8.054;2023-11-19T19:03:11;98965.94;;;12.52;79.20
26781;BME280;14366;49.184;8.054;2023-11-19T19:08:33;98954.50;;;12.50;79.53
26781;BME280;14366;49.184;8.054;2023-11-19T19:14:08;98959.25;;;12.48;79.16
26781;BME280;14366;49.184;8.054;2023-11-19T19:24:35;98958.78;;;12.45;79.16
26781;BME280;14366;49.184;8.054;2023-11-19T19:30:08;98958.94;;;12.43;78.97
26781;BME280;14366;49.184;8.054;2023-11-19T19:35:42;98970.97;;;12.41;79.27
26781;BME280;14366;49.184;8.054;2023-11-19T19:46:09;98980.66;;;12.35;79.27
26781;BME280;14366;49.184;8.054;2023-11-19T19:51:45;98992.47;;;12.34;79.02
26781;BME280;14366;49.184;8.054;2023-11-19T20:02:11;98984.91;;;12.30;79.06
26781;BME280;14366;49.184;8.054;2023-11-19T20:07:46;98987.63;;;12.30;79.17
26781;BME280;14366;49.184;8.054;2023-11-19T20:13:21;98992.19;;;12.29;79.38
26781;BME280;14366;49.184;8.054;2023-11-19T20:18:59;98994.03;;;12.29;79.20
26781;BME280;14366;49.184;8.054;2023-11-19T20:24:35;99002.66;;;12.32;79.55
26781;BME280;14366;49.184;8.054;2023-11-19T20:29:55;99020.53;;;12.33;79.21
26781;BME280;14366;49.184;8.054;2023-11-19T20:35:29;99020.53;;;12.33;78.52
26781;BME280;14366;49.184;8.054;2023-11-19T20:41:05;99034.72;;;12.35;78.74
26781;BME280;14366;49.184;8.054;2023-11-19T20:46:26;99053.63;;;12.35;78.92
26781;BME280;14366;49.184;8.054;2023-11-19T20:51:47;99049.91;;;12.36;78.32
26781;BME280;14366;49.184;8.054;2023-11-19T20:57:22;99045.16;;;12.38;78.93
26781;BME280;14366;49.184;8.054;2023-11-19T21:02:42;99062.87;;;12.41;78.46
26781;BME280;14366;49.184;8.054;2023-11-19T21:08:04;99059.34;;;12.40;78.58
26781;BME280;14366;49.184;8.054;2023-11-19T21:13:37;99058.31;;;12.41;78.44
26781;BME280;14366;49.184;8.054;2023-11-19T21:19:13;99066.06;;;12.44;78.30
26781;BME280;14366;49.184;8.054;2023-11-19T21:24:46;99056.94;;;12.45;77.71
26781;BME280;14366;49.184;8.054;2023-11-19T21:30:20;99049.47;;;12.47;77.35
26781;BME280;14366;49.184;8.054;2023-11-19T21:35:40;99053.84;;;12.48;77.86
26781;BME280;14366;49.184;8.054;2023-11-19T21:41:14;99052.62;;;12.51;77.57
26781;BME280;14366;49.184;8.054;2023-11-19T21:46:50;99044.34;;;12.52;77.22
26781;BME280;14366;49.184;8.054;2023-11-19T21:52:07;99055.16;;;12.52;77.39
26781;BME280;14366;49.184;8.054;2023-11-19T22:02:45;99044.19;;;12.54;76.71
26781;BME280;14366;49.184;8.054;2023-11-19T22:13:25;99028.44;;;12.57;75.51
26781;BME280;14366;49.184;8.054;2023-11-19T22:18:47;99020.50;;;12.56;75.20
26781;BME280;14366;49.184;8.054;2023-11-19T22:29:26;99034.69;;;12.58;75.48
26781;BME280;14366;49.184;8.054;2023-11-19T22:39:51;99039.78;;;12.53;75.20
26781;BME280;14366;49.184;8.054;2023-11-19T22:45:27;99042.66;;;12.51;75.36
26781;BME280;14366;49.184;8.054;2023-11-19T22:50:48;99044.53;;;12.51;75.31
26781;BME280;14366;49.184;8.054;2023-11-19T22:56:25;99016.69;;;12.50;75.25
26781;BME280;14366;49.184;8.054;2023-11-19T23:02:01;99019.56;;;12.49;75.38
26781;BME280;14366;49.184;8.054;2023-11-19T23:07:37;99016.38;;;12.45;75.86
26781;BME280;14366;49.184;8.054;2023-11-19T23:12:59;99022.81;;;12.44;76.08
26781;BME280;14366;49.184;8.054;2023-11-19T23:18:35;99024.50;;;12.45;76.02
26781;BME280;14366;49.184;8.054;2023-11-19T23:23:55;99021.78;;;12.45;75.70
26781;BME280;14366;49.184;8.054;2023-11-19T23:29:16;99014.69;;;12.44;76.07
26781;BME280;14366;49.184;8.054;2023-11-19T23:34:52;99015.34;;;12.46;75.74
26781;BME280;14366;49.184;8.054;2023-11-19T23:45:19;98998.94;;;12.48;76.39
26781;BME280;14366;49.184;8.054;2023-11-19T23:50:55;98980.19;;;12.46;76.60
26781;BME280;14366;49.184;8.054;2023-11-19T23:56:31;98994.09;;;12.43;76.53
